Terminal Aerodrome Forecast
Issued by NWS

Home | Current Version | Previous Version | Text Only | Print | Product List | Glossary On
Versions: 1 2 3 4 5 6 7 8 9 10 11 12 13 14 15 16 17 18 19 20 21 22 23
000
FTUS43 KDLH 020600 AAA
TAFBRD
TAF AMD
KBRD 020601Z 0206/0306 VRB03KT 2SM BR SKC
      TEMPO 0206/0209 3/4SM BR SCT003
     FM020900 VRB02KT 1SM BR SCT003
      TEMPO 0209/0212 1/2SM FG VV003
     FM021400 21004KT P6SM SCT050
     FM022300 VRB04KT P6SM VCTS BKN060CB=

USA.gov is the U.S. government's official web portal to all federal, state and local government web resources and services.